Time;durP1;ratioP1;P1;durP2;ratioP2;P2;SDS_P1;SDS_P2;PMS_P1;PMS_P2;Temp;Humidity;BMP_temperature;BMP_pressure;BME280_temperature;BME280_humidity;BME280_pressure;Samples;Min_cycle;Max_cycle;Signal;HPM_P1;HPM_P2
2021/12/24 00:00:36;;;;;;;0.60;0.60;;;;;;;;;;1849368;77;26243;-46
2021/12/24 00:03:03;;;;;;;2.05;0.60;;;;;;;;;;1856815;77;26242;-47
2021/12/24 00:05:31;;;;;;;0.68;0.55;;;;;;;;;;1853241;77;26249;-46
2021/12/24 00:07:59;;;;;;;0.80;0.62;;;;;;;;;;1854467;77;26507;-45
2021/12/24 00:10:27;;;;;;;1.65;0.40;;;;;;;;;;1855818;76;26296;-48
2021/12/24 00:13:04;;;;;;;1.10;0.40;;;;;;;;;;1857226;77;26368;-50
2021/12/24 00:18:26;;;;;;;0.95;0.47;;;;;;;;;;1840623;77;29556;-49
2021/12/24 00:21:56;;;;;;;0.30;0.30;;;;;;;;;;1859543;76;26301;-48
2021/12/24 00:36:51;;;;;;;0.30;0.30;;;;;;;;;;1886031;74;26283;-47
2021/12/24 00:39:18;;;;;;;0.33;0.33;;;;;;;;;;1879509;75;26342;-47
2021/12/24 00:41:46;;;;;;;0.53;0.30;;;;;;;;;;1889424;74;26257;-46
2021/12/24 00:44:13;;;;;;;0.25;0.25;;;;;;;;;;1890247;74;26785;-48
2021/12/24 00:46:41;;;;;;;0.30;0.30;;;;;;;;;;1893045;74;26666;-48
2021/12/24 00:49:08;;;;;;;0.50;0.50;;;;;;;;;;1889372;76;26336;-46
2021/12/24 00:56:58;;;;;;;0.37;0.37;;;;;;;;;;1883649;74;27424;-48
2021/12/24 00:59:26;;;;;;;0.35;0.30;;;;;;;;;;1886986;76;26233;-48
2021/12/24 01:01:53;;;;;;;1.55;0.30;;;;;;;;;;1885061;74;26305;-45
2021/12/24 01:04:20;;;;;;;0.57;0.33;;;;;;;;;;1888557;76;26254;-51
2021/12/24 01:06:48;;;;;;;0.20;0.20;;;;;;;;;;1884714;74;26238;-45
2021/12/24 01:09:15;;;;;;;0.30;0.23;;;;;;;;;;1890033;76;26199;-46
2021/12/24 01:11:42;;;;;;;0.20;0.20;;;;;;;;;;1889261;74;26742;-45
2021/12/24 01:14:10;;;;;;;0.40;0.40;;;;;;;;;;1887304;76;26745;-47
2021/12/24 01:16:48;;;;;;;0.20;0.20;;;;;;;;;;1889192;74;26777;-48
2021/12/24 01:19:12;;;;;;;0.42;0.42;;;;;;;;;;1900540;74;26320;-47
2021/12/24 01:21:54;;;;;;;0.20;0.20;;;;;;;;;;1884573;75;26335;-47
2021/12/24 01:24:09;;;;;;;0.20;0.20;;;;;;;;;;1870855;75;26582;-50
2021/12/24 01:27:37;;;;;;;0.20;0.20;;;;;;;;;;1879519;75;26387;-45
2021/12/24 01:42:48;;;;;;;0.23;0.10;;;;;;;;;;1858611;75;26383;-51
2021/12/24 01:45:17;;;;;;;0.10;0.10;;;;;;;;;;1878947;75;26258;-47
2021/12/24 01:47:44;;;;;;;0.20;0.20;;;;;;;;;;1879138;76;26247;-47
2021/12/24 01:50:13;;;;;;;0.10;0.10;;;;;;;;;;1883187;75;26243;-47
2021/12/24 01:52:40;;;;;;;0.10;0.10;;;;;;;;;;1883924;75;26243;-46
2021/12/24 01:55:09;;;;;;;0.10;0.10;;;;;;;;;;1879296;75;26769;-45
2021/12/24 01:57:37;;;;;;;0.17;0.17;;;;;;;;;;1879749;76;26289;-48
2021/12/24 02:00:06;;;;;;;0.13;0.13;;;;;;;;;;1875668;75;26262;-48
2021/12/24 02:02:33;;;;;;;0.20;0.20;;;;;;;;;;1873144;76;26309;-49
2021/12/24 02:05:00;;;;;;;0.05;0.05;;;;;;;;;;1879776;75;26234;-48
2021/12/24 02:07:27;;;;;;;0.10;0.10;;;;;;;;;;1878097;76;26190;-47
2021/12/24 02:09:55;;;;;;;0.10;0.10;;;;;;;;;;1863608;76;26258;-46
2021/12/24 02:12:24;;;;;;;0.20;0.20;;;;;;;;;;1881412;75;26843;-50
2021/12/24 02:14:56;;;;;;;0.10;0.10;;;;;;;;;;1879073;75;26317;-52
2021/12/24 02:17:43;;;;;;;0.10;0.10;;;;;;;;;;1867150;76;26265;-47
2021/12/24 02:28:35;;;;;;;0.20;0.20;;;;;;;;;;1884327;76;26748;-45
2021/12/24 02:30:54;;;;;;;0.10;0.10;;;;;;;;;;1891855;74;26392;-50
2021/12/24 02:33:21;;;;;;;0.10;0.10;;;;;;;;;;1890086;76;26191;-52
2021/12/24 02:35:48;;;;;;;0.10;0.10;;;;;;;;;;1889561;74;26252;-45
2021/12/24 02:38:16;;;;;;;0.98;0.33;;;;;;;;;;1882435;76;26298;-52
2021/12/24 02:40:43;;;;;;;0.10;0.10;;;;;;;;;;1881698;74;26614;-45
2021/12/24 02:43:14;;;;;;;0.10;0.10;;;;;;;;;;1888959;74;26297;-47
2021/12/24 02:45:42;;;;;;;0.10;0.10;;;;;;;;;;1888769;74;26319;-47
2021/12/24 02:48:25;;;;;;;0.08;0.08;;;;;;;;;;1889064;76;26408;-46
2021/12/24 02:56:11;;;;;;;0.08;0.08;;;;;;;;;;1880654;74;26292;-45
2021/12/24 02:58:39;;;;;;;0.10;0.10;;;;;;;;;;1887034;76;26575;-46
2021/12/24 03:01:07;;;;;;;0.10;0.10;;;;;;;;;;1896283;74;26254;-49
2021/12/24 03:03:34;;;;;;;0.00;0.00;;;;;;;;;;1889160;76;26278;-47
2021/12/24 03:06:01;;;;;;;0.20;0.03;;;;;;;;;;1880850;74;26214;-45
2021/12/24 03:08:29;;;;;;;0.10;0.10;;;;;;;;;;1889030;74;26295;-47
2021/12/24 03:10:58;;;;;;;0.78;0.08;;;;;;;;;;1893073;74;26257;-47
2021/12/24 03:13:26;;;;;;;0.10;0.10;;;;;;;;;;1891098;74;26331;-48
2021/12/24 03:15:55;;;;;;;0.08;0.08;;;;;;;;;;1910980;74;26277;-45
2021/12/24 03:18:27;;;;;;;0.10;0.10;;;;;;;;;;1912426;74;26305;-49
2021/12/24 03:21:02;;;;;;;0.20;0.10;;;;;;;;;;1912943;74;26719;-45
2021/12/24 03:23:35;;;;;;;0.03;0.03;;;;;;;;;;1888263;76;26314;-51
2021/12/24 03:25:52;;;;;;;0.10;0.10;;;;;;;;;;1886953;74;26329;-45
2021/12/24 03:28:20;;;;;;;0.10;0.10;;;;;;;;;;1890280;76;26327;-46
2021/12/24 03:30:47;;;;;;;0.00;0.00;;;;;;;;;;1896487;74;26243;-45
2021/12/24 03:33:14;;;;;;;0.08;0.08;;;;;;;;;;1892129;74;26654;-45
2021/12/24 03:35:41;;;;;;;0.17;0.17;;;;;;;;;;1889884;74;26352;-46
2021/12/24 03:38:09;;;;;;;0.80;0.03;;;;;;;;;;1890239;76;26276;-51
2021/12/24 03:40:36;;;;;;;0.13;0.13;;;;;;;;;;1888489;74;26764;-49
2021/12/24 03:43:04;;;;;;;0.05;0.05;;;;;;;;;;1885638;74;26702;-48
2021/12/24 03:45:43;;;;;;;0.10;0.10;;;;;;;;;;1910997;74;26287;-49
2021/12/24 03:48:14;;;;;;;0.20;0.20;;;;;;;;;;1888388;76;26324;-46
2021/12/24 03:50:57;;;;;;;0.10;0.10;;;;;;;;;;1886925;74;26313;-47
2021/12/24 03:55:59;;;;;;;0.00;0.00;;;;;;;;;;1889771;74;26249;-46
2021/12/24 03:58:26;;;;;;;0.10;0.10;;;;;;;;;;1890183;74;26300;-48
2021/12/24 04:00:53;;;;;;;0.10;0.10;;;;;;;;;;1890044;76;25660;-46
2021/12/24 04:03:20;;;;;;;0.00;0.00;;;;;;;;;;1888120;74;26246;-46
2021/12/24 04:05:48;;;;;;;0.00;0.00;;;;;;;;;;1884578;74;26269;-48
2021/12/24 04:08:16;;;;;;;0.00;0.00;;;;;;;;;;1860806;74;26280;-51
2021/12/24 04:10:43;;;;;;;0.95;0.10;;;;;;;;;;1910034;74;26266;-48
2021/12/24 04:13:12;;;;;;;0.10;0.08;;;;;;;;;;1902777;74;26241;-47
2021/12/24 04:15:40;;;;;;;0.10;0.10;;;;;;;;;;1889811;74;26303;-45
2021/12/24 04:18:24;;;;;;;0.00;0.00;;;;;;;;;;1889843;74;26748;-51
2021/12/24 04:26:03;;;;;;;2.02;0.10;;;;;;;;;;1885395;75;26263;-45
2021/12/24 04:28:30;;;;;;;0.00;0.00;;;;;;;;;;1887452;75;26257;-47
2021/12/24 04:30:59;;;;;;;0.00;0.00;;;;;;;;;;1876752;75;26261;-49
2021/12/24 04:33:32;;;;;;;0.00;0.00;;;;;;;;;;1880320;75;26277;-46
2021/12/24 04:38:57;;;;;;;0.40;0.10;;;;;;;;;;1895478;75;26280;-48
2021/12/24 04:52:18;;;;;;;0.00;0.00;;;;;;;;;;1904482;75;26300;-44
2021/12/24 05:03:10;;;;;;;0.08;0.00;;;;;;;;;;1863403;75;26263;-45
2021/12/24 05:05:44;;;;;;;0.00;0.00;;;;;;;;;;1870646;75;26679;-46
2021/12/24 05:10:39;;;;;;;0.10;0.10;;;;;;;;;;1870879;76;26342;-46
2021/12/24 05:13:08;;;;;;;0.10;0.03;;;;;;;;;;1872460;76;26283;-46
2021/12/24 05:15:38;;;;;;;0.10;0.10;;;;;;;;;;1866630;75;26259;-47
2021/12/24 05:23:36;;;;;;;0.00;0.00;;;;;;;;;;1851890;77;26337;-47
2021/12/24 05:26:04;;;;;;;0.53;0.10;;;;;;;;;;1845677;77;26303;-54
2021/12/24 05:28:32;;;;;;;0.35;0.03;;;;;;;;;;1848915;77;26304;-47
2021/12/24 05:30:59;;;;;;;0.00;0.00;;;;;;;;;;1847665;77;26255;-47
2021/12/24 05:33:27;;;;;;;0.25;0.00;;;;;;;;;;1847332;77;26272;-48
2021/12/24 05:35:55;;;;;;;0.00;0.00;;;;;;;;;;1847233;77;26832;-50
2021/12/24 05:38:23;;;;;;;0.00;0.00;;;;;;;;;;1832624;77;26280;-45
2021/12/24 05:40:50;;;;;;;0.95;0.20;;;;;;;;;;1836982;77;26279;-48
2021/12/24 05:43:18;;;;;;;0.72;0.10;;;;;;;;;;1848839;77;26269;-48
2021/12/24 05:45:46;;;;;;;1.27;0.10;;;;;;;;;;1848258;77;26614;-51
2021/12/24 05:48:13;;;;;;;0.20;0.20;;;;;;;;;;1848999;77;26307;-51
2021/12/24 05:50:40;;;;;;;2.02;0.10;;;;;;;;;;1846964;77;26271;-49
2021/12/24 05:53:07;;;;;;;0.30;0.10;;;;;;;;;;1830904;77;26269;-48
2021/12/24 05:55:35;;;;;;;1.35;0.20;;;;;;;;;;1835213;77;26294;-48
2021/12/24 05:58:07;;;;;;;0.35;0.30;;;;;;;;;;1848109;77;26330;-48
2021/12/24 06:00:31;;;;;;;1.12;0.60;;;;;;;;;;1847865;77;26673;-48
2021/12/24 06:02:59;;;;;;;1.02;1.02;;;;;;;;;;1848513;77;26832;-46
2021/12/24 06:05:26;;;;;;;0.98;0.98;;;;;;;;;;1846861;77;26836;-48
2021/12/24 06:07:53;;;;;;;0.90;0.70;;;;;;;;;;1846496;77;26748;-45
2021/12/24 06:10:20;;;;;;;1.10;1.00;;;;;;;;;;1847574;77;26774;-45
2021/12/24 06:12:48;;;;;;;1.10;1.00;;;;;;;;;;1847369;77;26259;-46
2021/12/24 06:15:16;;;;;;;1.17;0.90;;;;;;;;;;1847313;77;26668;-46
2021/12/24 06:17:46;;;;;;;1.72;0.88;;;;;;;;;;1847231;77;26881;-47
2021/12/24 06:20:14;;;;;;;0.85;0.85;;;;;;;;;;1847464;77;26813;-46
2021/12/24 06:22:42;;;;;;;1.17;1.07;;;;;;;;;;1846907;77;26819;-50
2021/12/24 06:25:09;;;;;;;0.90;0.90;;;;;;;;;;1847236;76;26204;-51
2021/12/24 06:27:37;;;;;;;0.85;0.85;;;;;;;;;;1874587;75;26246;-49
2021/12/24 06:30:05;;;;;;;0.62;0.62;;;;;;;;;;1874401;75;26238;-54
2021/12/24 06:32:33;;;;;;;0.80;0.80;;;;;;;;;;1871397;75;26708;-49
2021/12/24 06:35:00;;;;;;;1.32;1.00;;;;;;;;;;1873839;75;26238;-47
2021/12/24 06:37:27;;;;;;;1.75;0.98;;;;;;;;;;1874838;76;26259;-48
2021/12/24 06:39:55;;;;;;;1.17;0.90;;;;;;;;;;1871469;75;26314;-49
2021/12/24 06:42:22;;;;;;;0.70;0.70;;;;;;;;;;1875332;75;26267;-45
2021/12/24 06:44:50;;;;;;;1.02;0.60;;;;;;;;;;1877300;75;26694;-44
2021/12/24 06:47:17;;;;;;;1.47;0.60;;;;;;;;;;1872812;75;26329;-47
2021/12/24 06:49:44;;;;;;;0.70;0.70;;;;;;;;;;1874067;75;26243;-48
2021/12/24 06:52:12;;;;;;;2.72;0.60;;;;;;;;;;1873829;75;26246;-51
2021/12/24 06:54:39;;;;;;;0.68;0.68;;;;;;;;;;1873532;75;26375;-48
2021/12/24 06:57:12;;;;;;;0.60;0.60;;;;;;;;;;1870723;76;26251;-46
2021/12/24 06:59:36;;;;;;;0.90;0.70;;;;;;;;;;1873844;75;26302;-46
2021/12/24 07:02:03;;;;;;;0.60;0.60;;;;;;;;;;1872659;75;26302;-48
2021/12/24 07:04:31;;;;;;;1.85;0.62;;;;;;;;;;1874707;75;26246;-50
2021/12/24 07:06:58;;;;;;;4.95;0.70;;;;;;;;;;1869069;75;26930;-47
2021/12/24 07:09:25;;;;;;;0.60;0.60;;;;;;;;;;1869777;75;26675;-45
2021/12/24 07:11:52;;;;;;;1.67;0.60;;;;;;;;;;1871399;75;27326;-54
2021/12/24 07:14:20;;;;;;;1.80;0.57;;;;;;;;;;1872121;75;26631;-47
2021/12/24 07:16:47;;;;;;;0.57;0.57;;;;;;;;;;1865208;75;26347;-56
2021/12/24 07:19:14;;;;;;;0.62;0.47;;;;;;;;;;1870459;75;26257;-52
2021/12/24 07:21:42;;;;;;;0.88;0.50;;;;;;;;;;1874320;75;26247;-54
2021/12/24 07:24:10;;;;;;;0.55;0.42;;;;;;;;;;1862309;75;26701;-52
2021/12/24 07:26:37;;;;;;;3.45;0.50;;;;;;;;;;1873696;75;26732;-47
2021/12/24 07:29:04;;;;;;;1.65;0.50;;;;;;;;;;1868505;75;26348;-53
2021/12/24 07:31:32;;;;;;;0.40;0.40;;;;;;;;;;1872242;75;26199;-46
2021/12/24 07:33:59;;;;;;;1.35;0.75;;;;;;;;;;1874643;75;26627;-45
2021/12/24 07:36:26;;;;;;;2.15;0.50;;;;;;;;;;1879037;76;26324;-43
2021/12/24 07:38:53;;;;;;;0.65;0.40;;;;;;;;;;1880039;75;26244;-43
2021/12/24 07:41:21;;;;;;;2.30;0.42;;;;;;;;;;1882449;75;26276;-48
2021/12/24 07:43:49;;;;;;;3.83;0.40;;;;;;;;;;1865134;76;26351;-45
2021/12/24 07:46:17;;;;;;;0.40;0.35;;;;;;;;;;1858384;75;26357;-45
2021/12/24 07:48:48;;;;;;;0.40;0.40;;;;;;;;;;1854651;75;25674;-43
2021/12/24 07:54:00;;;;;;;4.05;0.88;;;;;;;;;;1877356;75;26303;-48
2021/12/24 07:56:28;;;;;;;4.22;0.88;;;;;;;;;;1868810;75;26250;-52
2021/12/24 07:58:56;;;;;;;2.85;0.70;;;;;;;;;;1872503;75;26286;-45
2021/12/24 08:01:24;;;;;;;4.50;0.60;;;;;;;;;;1862750;75;26731;-43
2021/12/24 08:03:52;;;;;;;2.30;0.57;;;;;;;;;;1864785;75;26331;-43
2021/12/24 08:06:20;;;;;;;0.62;0.60;;;;;;;;;;1873975;76;26330;-54
2021/12/24 08:08:48;;;;;;;4.97;0.60;;;;;;;;;;1864647;75;26265;-49
2021/12/24 08:11:15;;;;;;;1.95;0.90;;;;;;;;;;1866547;75;26333;-50
2021/12/24 08:13:43;;;;;;;2.52;0.55;;;;;;;;;;1869134;75;26318;-44
2021/12/24 08:16:13;;;;;;;0.50;0.45;;;;;;;;;;1863441;76;26665;-46
2021/12/24 08:18:43;;;;;;;5.22;1.00;;;;;;;;;;1872556;75;26372;-47
2021/12/24 08:21:10;;;;;;;1.07;0.55;;;;;;;;;;1862039;76;26659;-47
2021/12/24 08:23:37;;;;;;;1.22;0.50;;;;;;;;;;1857768;76;26265;-52
2021/12/24 08:26:04;;;;;;;3.08;0.62;;;;;;;;;;1857382;76;26693;-49
2021/12/24 08:28:32;;;;;;;1.42;0.80;;;;;;;;;;1877363;76;26234;-52
2021/12/24 08:30:59;;;;;;;0.88;0.42;;;;;;;;;;1873647;75;26257;-46
2021/12/24 08:33:26;;;;;;;0.60;0.50;;;;;;;;;;1857426;76;26823;-48
2021/12/24 08:35:53;;;;;;;1.45;0.40;;;;;;;;;;1874290;76;26769;-44
2021/12/24 08:38:21;;;;;;;1.12;0.40;;;;;;;;;;1879143;76;26421;-46
2021/12/24 08:40:48;;;;;;;1.95;0.50;;;;;;;;;;1877506;75;25646;-54
2021/12/24 08:43:15;;;;;;;1.60;0.50;;;;;;;;;;1881023;76;26340;-53
2021/12/24 08:45:43;;;;;;;1.50;0.50;;;;;;;;;;1881090;76;26393;-54
2021/12/24 08:48:10;;;;;;;0.50;0.50;;;;;;;;;;1879193;75;26788;-50
2021/12/24 08:50:38;;;;;;;0.88;0.40;;;;;;;;;;1874845;76;26309;-53
2021/12/24 08:53:06;;;;;;;0.50;0.50;;;;;;;;;;1879117;76;26860;-52
2021/12/24 08:55:35;;;;;;;0.30;0.30;;;;;;;;;;1871722;76;26776;-46
2021/12/24 08:58:03;;;;;;;0.40;0.40;;;;;;;;;;1863002;76;26332;-44
2021/12/24 09:00:31;;;;;;;0.50;0.40;;;;;;;;;;1893131;75;26199;-52
2021/12/24 09:02:58;;;;;;;3.60;0.40;;;;;;;;;;1877049;75;26266;-52
2021/12/24 09:05:25;;;;;;;0.35;0.30;;;;;;;;;;1865341;75;26260;-45
2021/12/24 09:07:53;;;;;;;0.80;0.42;;;;;;;;;;1862294;75;26284;-45
2021/12/24 09:10:21;;;;;;;1.17;0.30;;;;;;;;;;1862464;75;27146;-45
2021/12/24 09:12:48;;;;;;;0.20;0.20;;;;;;;;;;1878478;76;26243;-46
2021/12/24 09:15:16;;;;;;;0.30;0.10;;;;;;;;;;1849465;75;26296;-48
2021/12/24 09:17:46;;;;;;;1.95;0.40;;;;;;;;;;1848537;77;26714;-50
2021/12/24 09:20:16;;;;;;;0.20;0.20;;;;;;;;;;1848067;77;26284;-49
2021/12/24 09:22:43;;;;;;;0.85;0.40;;;;;;;;;;1850644;76;26654;-47
2021/12/24 09:25:11;;;;;;;0.40;0.40;;;;;;;;;;1848329;77;26769;-47
2021/12/24 09:27:38;;;;;;;0.40;0.40;;;;;;;;;;1856330;76;26376;-54
2021/12/24 09:30:06;;;;;;;1.85;0.60;;;;;;;;;;1870425;76;26184;-48
2021/12/24 09:32:33;;;;;;;0.40;0.40;;;;;;;;;;1869523;76;26317;-50
2021/12/24 09:35:00;;;;;;;0.53;0.50;;;;;;;;;;1877972;76;26443;-50
2021/12/24 09:37:28;;;;;;;0.65;0.40;;;;;;;;;;1878125;76;26251;-44
2021/12/24 09:39:55;;;;;;;0.40;0.40;;;;;;;;;;1878608;76;26241;-47
2021/12/24 09:42:24;;;;;;;1.35;0.50;;;;;;;;;;1879805;76;26237;-49
2021/12/24 09:44:51;;;;;;;3.50;0.55;;;;;;;;;;1879770;76;26332;-47
2021/12/24 09:47:18;;;;;;;0.30;0.30;;;;;;;;;;1880574;76;26282;-45
2021/12/24 09:49:46;;;;;;;0.40;0.40;;;;;;;;;;1880542;76;26286;-45
2021/12/24 09:52:14;;;;;;;0.40;0.40;;;;;;;;;;1880890;76;26274;-47
2021/12/24 09:54:43;;;;;;;1.45;0.30;;;;;;;;;;1874356;76;26305;-52
2021/12/24 09:57:11;;;;;;;0.53;0.40;;;;;;;;;;1850149;76;26310;-38
2021/12/24 09:59:38;;;;;;;10.75;1.20;;;;;;;;;;1877741;76;26243;-51
2021/12/24 10:02:16;;;;;;;0.90;0.47;;;;;;;;;;1861631;75;26329;-51
2021/12/24 10:04:38;;;;;;;1.00;0.33;;;;;;;;;;1879217;76;26579;-51
2021/12/24 10:07:07;;;;;;;4.10;0.80;;;;;;;;;;1858453;75;26206;-46
2021/12/24 10:09:36;;;;;;;0.47;0.37;;;;;;;;;;1867697;76;26990;-51
2021/12/24 10:12:05;;;;;;;0.68;0.68;;;;;;;;;;1875327;76;26252;-48
2021/12/24 10:14:36;;;;;;;0.70;0.70;;;;;;;;;;1869628;76;26381;-48
2021/12/24 10:17:05;;;;;;;2.08;0.90;;;;;;;;;;1864760;76;26340;-50
2021/12/24 10:19:49;;;;;;;3.27;1.45;;;;;;;;;;1879368;76;26335;-52
2021/12/24 10:22:17;;;;;;;3.72;1.45;;;;;;;;;;1872321;76;26255;-48
2021/12/24 10:24:46;;;;;;;3.55;1.45;;;;;;;;;;1871302;76;26252;-49
2021/12/24 10:27:13;;;;;;;1.72;1.62;;;;;;;;;;1875538;76;26263;-48
2021/12/24 10:29:42;;;;;;;1.50;1.40;;;;;;;;;;1863274;76;27377;-51
2021/12/24 10:32:14;;;;;;;3.20;1.77;;;;;;;;;;1858335;77;26273;-49
2021/12/24 10:34:43;;;;;;;1.90;1.72;;;;;;;;;;1867977;75;26318;-48
2021/12/24 10:37:14;;;;;;;3.15;1.65;;;;;;;;;;1864015;76;26201;-48
2021/12/24 10:39:55;;;;;;;1.67;1.55;;;;;;;;;;1908481;75;26203;-50
2021/12/24 10:42:36;;;;;;;2.47;1.90;;;;;;;;;;1894250;75;26314;-46
2021/12/24 10:45:05;;;;;;;3.35;1.75;;;;;;;;;;1888259;76;26275;-48
2021/12/24 10:47:35;;;;;;;3.90;1.70;;;;;;;;;;1888112;76;26348;-52
2021/12/24 10:55:27;;;;;;;2.45;1.60;;;;;;;;;;1890125;76;26396;-50
2021/12/24 10:57:56;;;;;;;3.87;1.60;;;;;;;;;;1889664;76;26277;-52
2021/12/24 11:00:25;;;;;;;2.22;1.45;;;;;;;;;;1887626;76;26284;-48
2021/12/24 11:02:54;;;;;;;2.20;1.57;;;;;;;;;;1876192;76;26191;-47
2021/12/24 11:05:29;;;;;;;2.33;1.50;;;;;;;;;;1890064;76;26245;-49
2021/12/24 11:07:57;;;;;;;1.40;1.30;;;;;;;;;;1889252;75;26323;-56
2021/12/24 11:10:29;;;;;;;1.50;1.40;;;;;;;;;;1880685;76;26300;-48
2021/12/24 11:12:58;;;;;;;2.08;1.60;;;;;;;;;;1878627;76;26290;-49
2021/12/24 11:15:33;;;;;;;3.33;1.50;;;;;;;;;;1877547;75;26280;-46
2021/12/24 11:18:01;;;;;;;1.40;1.30;;;;;;;;;;1882366;75;25661;-54
2021/12/24 11:20:30;;;;;;;1.42;1.40;;;;;;;;;;1871099;75;26781;-51
2021/12/24 11:22:59;;;;;;;2.12;1.10;;;;;;;;;;1884837;75;26548;-49
2021/12/24 11:25:28;;;;;;;1.37;1.27;;;;;;;;;;1884344;75;26234;-60
2021/12/24 11:27:55;;;;;;;1.40;1.30;;;;;;;;;;1880468;76;26762;-50
2021/12/24 11:30:24;;;;;;;1.30;1.20;;;;;;;;;;1864139;75;26289;-48
2021/12/24 11:32:51;;;;;;;1.35;1.25;;;;;;;;;;1869625;75;26300;-47
2021/12/24 11:35:19;;;;;;;1.87;1.37;;;;;;;;;;1875651;75;26714;-49
2021/12/24 11:37:47;;;;;;;1.30;1.30;;;;;;;;;;1869490;75;26282;-54
2021/12/24 11:40:16;;;;;;;1.70;1.35;;;;;;;;;;1873159;75;26190;-51
2021/12/24 11:42:52;;;;;;;1.35;1.25;;;;;;;;;;1866212;75;26700;-53
2021/12/24 11:45:21;;;;;;;1.40;1.30;;;;;;;;;;1865820;74;26211;-49
2021/12/24 11:47:49;;;;;;;1.62;1.47;;;;;;;;;;1880584;76;25727;-49
2021/12/24 11:50:17;;;;;;;1.52;1.40;;;;;;;;;;1878029;75;26218;-57
2021/12/24 11:52:45;;;;;;;1.70;1.60;;;;;;;;;;1882197;75;26278;-53
2021/12/24 11:55:13;;;;;;;1.70;1.60;;;;;;;;;;1866730;76;26203;-47
2021/12/24 11:58:00;;;;;;;1.30;1.30;;;;;;;;;;1886672;76;26260;-56
2021/12/24 12:00:28;;;;;;;1.52;1.42;;;;;;;;;;1880897;75;26349;-46
2021/12/24 12:02:56;;;;;;;1.60;1.50;;;;;;;;;;1890202;76;26343;-48
2021/12/24 12:05:26;;;;;;;3.02;1.65;;;;;;;;;;1890199;76;26201;-50
2021/12/24 12:07:55;;;;;;;4.47;1.80;;;;;;;;;;1886884;76;26359;-54
2021/12/24 12:10:33;;;;;;;2.15;1.70;;;;;;;;;;1885116;76;26261;-46
2021/12/24 12:13:00;;;;;;;7.10;1.92;;;;;;;;;;1862337;74;26899;-47
2021/12/24 12:15:31;;;;;;;3.25;1.92;;;;;;;;;;1910692;74;26655;-52
2021/12/24 12:17:59;;;;;;;4.62;1.80;;;;;;;;;;1890285;76;26313;-49
2021/12/24 12:20:49;;;;;;;5.80;2.10;;;;;;;;;;1890111;76;26767;-49
2021/12/24 12:23:32;;;;;;;5.97;1.95;;;;;;;;;;1889381;76;26787;-50
2021/12/24 12:26:00;;;;;;;5.92;2.02;;;;;;;;;;1888764;74;26265;-47
2021/12/24 12:28:27;;;;;;;5.12;2.10;;;;;;;;;;1885845;74;26265;-47
2021/12/24 12:30:58;;;;;;;8.35;2.55;;;;;;;;;;1848706;76;26331;-48
2021/12/24 12:33:32;;;;;;;4.22;1.90;;;;;;;;;;1876602;75;26360;-49
2021/12/24 12:36:06;;;;;;;3.85;2.10;;;;;;;;;;1871706;76;26943;-50
2021/12/24 12:38:40;;;;;;;5.60;1.90;;;;;;;;;;1874175;75;26694;-48
2021/12/24 12:41:30;;;;;;;2.77;1.50;;;;;;;;;;1876321;75;26969;-49
2021/12/24 12:43:55;;;;;;;3.47;1.65;;;;;;;;;;1875237;75;26247;-47
2021/12/24 12:46:31;;;;;;;3.55;1.65;;;;;;;;;;1909921;75;26329;-48
2021/12/24 12:48:54;;;;;;;4.47;1.92;;;;;;;;;;1886203;75;26403;-48
2021/12/24 12:51:23;;;;;;;2.22;1.50;;;;;;;;;;1880266;76;26795;-52
2021/12/24 12:53:51;;;;;;;5.45;1.75;;;;;;;;;;1898335;75;26538;-50
2021/12/24 12:56:20;;;;;;;3.65;1.42;;;;;;;;;;1903669;75;26346;-52
2021/12/24 12:58:51;;;;;;;1.30;1.20;;;;;;;;;;1886087;75;26265;-51
2021/12/24 13:01:20;;;;;;;2.42;1.45;;;;;;;;;;1874348;76;26282;-49
2021/12/24 13:03:58;;;;;;;1.70;1.10;;;;;;;;;;1883159;75;26789;-50
2021/12/24 13:06:42;;;;;;;1.52;1.07;;;;;;;;;;1858962;76;27013;-49
2021/12/24 13:09:11;;;;;;;3.17;1.00;;;;;;;;;;1878589;75;26344;-54
2021/12/24 13:11:39;;;;;;;1.57;1.10;;;;;;;;;;1891590;75;26199;-53
2021/12/24 13:14:07;;;;;;;2.27;1.10;;;;;;;;;;1880847;75;26302;-49
2021/12/24 13:16:37;;;;;;;3.70;1.22;;;;;;;;;;1868764;77;26232;-51
2021/12/24 13:24:39;;;;;;;1.47;0.90;;;;;;;;;;1899428;75;26208;-51
2021/12/24 13:27:06;;;;;;;0.80;0.80;;;;;;;;;;1883938;75;26257;-47
2021/12/24 13:29:33;;;;;;;0.90;0.90;;;;;;;;;;1891938;75;26286;-45
2021/12/24 13:32:01;;;;;;;1.47;0.98;;;;;;;;;;1879393;75;26235;-51
2021/12/24 13:34:29;;;;;;;0.90;0.90;;;;;;;;;;1863573;75;26601;-47
2021/12/24 13:36:58;;;;;;;2.50;0.75;;;;;;;;;;1879204;76;26263;-47
2021/12/24 13:39:25;;;;;;;1.57;0.75;;;;;;;;;;1874690;75;26261;-46
2021/12/24 13:42:07;;;;;;;0.80;0.80;;;;;;;;;;1891835;75;26351;-46
2021/12/24 13:44:36;;;;;;;1.12;0.90;;;;;;;;;;1861385;75;26273;-46
2021/12/24 13:47:11;;;;;;;1.35;1.25;;;;;;;;;;1871771;76;26261;-48
2021/12/24 13:54:55;;;;;;;2.83;2.47;;;;;;;;;;1867421;76;26318;-46
2021/12/24 13:57:24;;;;;;;4.17;2.67;;;;;;;;;;1868826;76;26226;-46
2021/12/24 13:59:52;;;;;;;4.28;3.02;;;;;;;;;;1866636;76;26777;-57
2021/12/24 14:02:20;;;;;;;5.60;3.80;;;;;;;;;;1866425;75;26253;-56
2021/12/24 14:04:49;;;;;;;6.42;3.55;;;;;;;;;;1856009;76;26267;-51
2021/12/24 14:07:16;;;;;;;6.12;3.95;;;;;;;;;;1868970;76;26323;-54
2021/12/24 14:09:43;;;;;;;4.87;3.98;;;;;;;;;;1881259;76;26428;-57
2021/12/24 14:12:12;;;;;;;6.55;3.90;;;;;;;;;;1881141;76;26343;-48
2021/12/24 14:15:26;;;;;;;6.20;4.42;;;;;;;;;;1902512;75;26309;-54
2021/12/24 14:17:38;;;;;;;5.58;4.12;;;;;;;;;;1886296;75;26877;-52
2021/12/24 14:20:00;;;;;;;6.33;4.53;;;;;;;;;;1897340;75;26353;-51
2021/12/24 14:22:14;;;;;;;6.67;4.40;;;;;;;;;;1888256;75;26342;-48
2021/12/24 14:24:52;;;;;;;4.70;4.25;;;;;;;;;;1873617;75;26234;-52
2021/12/24 14:27:20;;;;;;;9.60;4.83;;;;;;;;;;1871494;76;26332;-48
2021/12/24 14:29:49;;;;;;;11.70;5.00;;;;;;;;;;1870553;75;26341;-48
2021/12/24 14:32:18;;;;;;;9.65;5.40;;;;;;;;;;1864098;75;26344;-52
2021/12/24 14:34:50;;;;;;;12.70;5.78;;;;;;;;;;1894124;75;26692;-53
2021/12/24 14:37:35;;;;;;;11.38;6.37;;;;;;;;;;1892085;75;26295;-49
2021/12/24 14:40:10;;;;;;;16.02;6.80;;;;;;;;;;1862734;76;26320;-47
2021/12/24 14:42:39;;;;;;;17.55;6.97;;;;;;;;;;1876126;75;26206;-51
2021/12/24 14:45:14;;;;;;;16.97;7.80;;;;;;;;;;1879376;75;26352;-52
2021/12/24 14:47:41;;;;;;;17.65;7.10;;;;;;;;;;1849198;77;26339;-51
2021/12/24 14:50:10;;;;;;;15.45;7.58;;;;;;;;;;1858161;76;25960;-49
2021/12/24 14:52:38;;;;;;;15.13;6.78;;;;;;;;;;1857252;75;26785;-49
2021/12/24 14:55:13;;;;;;;12.00;7.42;;;;;;;;;;1871029;75;26261;-47
2021/12/24 14:57:44;;;;;;;14.50;6.67;;;;;;;;;;1870140;75;26293;-53
2021/12/24 15:00:13;;;;;;;16.00;7.25;;;;;;;;;;1860030;75;26242;-51
2021/12/24 15:02:42;;;;;;;16.50;6.83;;;;;;;;;;1873271;75;26198;-52
2021/12/24 15:05:10;;;;;;;15.03;7.10;;;;;;;;;;1865905;76;26270;-48
2021/12/24 15:07:38;;;;;;;17.70;7.53;;;;;;;;;;1851846;76;25222;-49
2021/12/24 15:10:12;;;;;;;14.78;6.45;;;;;;;;;;1867642;75;26667;-49
2021/12/24 15:12:46;;;;;;;14.70;6.55;;;;;;;;;;1871452;76;26686;-49
2021/12/24 15:15:12;;;;;;;15.65;6.70;;;;;;;;;;1866528;75;26273;-50
2021/12/24 15:17:41;;;;;;;15.10;6.50;;;;;;;;;;1849702;76;26226;-47
2021/12/24 15:20:10;;;;;;;13.85;6.20;;;;;;;;;;1869101;76;26287;-49
2021/12/24 15:22:37;;;;;;;13.43;5.85;;;;;;;;;;1878437;75;26247;-46
2021/12/24 15:25:05;;;;;;;13.08;5.50;;;;;;;;;;1879587;76;26231;-48
2021/12/24 15:27:36;;;;;;;12.85;5.42;;;;;;;;;;1876060;76;26715;-48
2021/12/24 15:30:05;;;;;;;10.58;5.08;;;;;;;;;;1877566;76;26270;-46
2021/12/24 15:32:32;;;;;;;9.40;5.30;;;;;;;;;;1870324;76;26211;-46
2021/12/24 15:35:00;;;;;;;8.48;4.62;;;;;;;;;;1875231;75;26627;-46
2021/12/24 15:37:27;;;;;;;7.53;4.80;;;;;;;;;;1878407;76;26388;-49
2021/12/24 15:39:54;;;;;;;9.20;4.58;;;;;;;;;;1878071;76;26356;-49
2021/12/24 15:42:25;;;;;;;10.13;4.50;;;;;;;;;;1877219;76;26246;-48
2021/12/24 15:44:50;;;;;;;12.20;4.55;;;;;;;;;;1873829;76;26378;-52
2021/12/24 15:47:18;;;;;;;10.35;4.10;;;;;;;;;;1876726;76;26738;-47
2021/12/24 15:49:46;;;;;;;8.20;3.67;;;;;;;;;;1872876;76;26242;-47
2021/12/24 15:52:13;;;;;;;7.42;3.67;;;;;;;;;;1871309;76;26324;-51
2021/12/24 15:54:40;;;;;;;7.00;3.77;;;;;;;;;;1878081;76;25711;-47
2021/12/24 15:57:08;;;;;;;7.95;3.20;;;;;;;;;;1880497;76;26239;-49
2021/12/24 15:59:36;;;;;;;8.65;3.70;;;;;;;;;;1877971;75;26324;-47
2021/12/24 16:02:04;;;;;;;9.18;3.77;;;;;;;;;;1874009;76;26274;-46
2021/12/24 16:04:34;;;;;;;7.97;3.58;;;;;;;;;;1872653;76;26275;-48
2021/12/24 16:07:01;;;;;;;7.50;3.47;;;;;;;;;;1866963;76;26360;-50
2021/12/24 16:09:29;;;;;;;4.20;2.90;;;;;;;;;;1879956;76;26254;-48
2021/12/24 16:11:57;;;;;;;8.55;3.30;;;;;;;;;;1864051;75;26351;-48
2021/12/24 16:14:25;;;;;;;5.45;2.72;;;;;;;;;;1857466;76;26299;-50
2021/12/24 16:16:53;;;;;;;4.62;2.58;;;;;;;;;;1865906;75;26574;-49
2021/12/24 16:19:22;;;;;;;9.60;2.85;;;;;;;;;;1878597;76;26208;-48
2021/12/24 16:21:50;;;;;;;3.75;2.47;;;;;;;;;;1879557;76;26281;-50
2021/12/24 16:24:19;;;;;;;4.83;2.40;;;;;;;;;;1880814;76;25777;-49
2021/12/24 16:26:46;;;;;;;3.55;1.90;;;;;;;;;;1880993;76;26325;-48
2021/12/24 16:29:17;;;;;;;6.58;2.27;;;;;;;;;;1880803;76;26269;-49
2021/12/24 16:31:43;;;;;;;4.33;2.08;;;;;;;;;;1884136;75;26347;-46
2021/12/24 16:34:11;;;;;;;7.37;1.98;;;;;;;;;;1887058;76;26319;-47
2021/12/24 16:36:39;;;;;;;3.12;1.65;;;;;;;;;;1887155;75;26251;-51
2021/12/24 16:39:06;;;;;;;4.25;1.70;;;;;;;;;;1886956;76;26255;-45